Time;durP1;ratioP1;P1;durP2;ratioP2;P2;SDS_P1;SDS_P2;PMS_P1;PMS_P2;Temp;Humidity;BMP_temperature;BMP_pressure;BME280_temperature;BME280_humidity;BME280_pressure;Samples;Min_cycle;Max_cycle;Signal;HPM_P1;HPM_P2
2022/09/19 00:00:51;;;;;;;6.00;1.60;;;20.60;71.90;;;;;;214979;1299;22603;-49
2022/09/19 00:06:04;;;;;;;4.70;1.60;;;20.60;72.00;;;;;;214976;1299;24348;-51
2022/09/19 00:11:10;;;;;;;3.80;1.50;;;20.60;71.90;;;;;;214982;1299;23460;-52
2022/09/19 00:16:27;;;;;;;5.10;1.60;;;20.60;72.20;;;;;;215290;1296;22595;-50
2022/09/19 00:21:38;;;;;;;5.80;2.00;;;20.50;71.90;;;;;;215803;1297;22564;-52
2022/09/19 00:26:45;;;;;;;6.40;1.90;;;20.60;72.00;;;;;;214845;1299;22576;-51
2022/09/19 00:31:49;;;;;;;6.40;1.60;;;20.60;72.00;;;;;;216805;1299;22574;-51
2022/09/19 00:36:52;;;;;;;4.60;1.80;;;20.50;71.60;;;;;;218256;1298;22563;-53
2022/09/19 00:41:56;;;;;;;4.70;2.10;;;20.50;71.90;;;;;;214799;1299;22889;-55
2022/09/19 00:47:05;;;;;;;4.70;1.70;;;20.50;71.70;;;;;;215293;1299;22925;-49
2022/09/19 00:52:43;;;;;;;3.50;1.50;;;20.50;71.90;;;;;;215166;1299;22628;-49
2022/09/19 00:57:55;;;;;;;3.90;1.60;;;20.50;71.70;;;;;;214945;1299;25267;-51
2022/09/19 01:03:00;;;;;;;3.20;1.40;;;20.50;71.60;;;;;;214917;1299;22561;-53
2022/09/19 01:08:19;;;;;;;4.90;1.60;;;20.40;71.60;;;;;;214693;1297;22639;-52
2022/09/19 01:13:38;;;;;;;5.10;1.70;;;20.50;71.90;;;;;;214838;1296;25286;-54
2022/09/19 01:19:05;;;;;;;3.80;1.30;;;20.50;71.60;;;;;;213869;1297;1746768;-52
2022/09/19 01:24:40;;;;;;;4.70;2.20;;;20.40;71.50;;;;;;214988;1297;24338;-53
2022/09/19 01:29:53;;;;;;;4.90;1.60;;;20.40;71.40;;;;;;214879;1299;25243;-50
2022/09/19 01:35:02;;;;;;;7.00;1.60;;;20.40;71.40;;;;;;214718;1297;26579;-52
2022/09/19 01:40:10;;;;;;;4.70;1.40;;;20.40;71.70;;;;;;215023;1299;22570;-52
2022/09/19 01:45:31;;;;;;;3.60;1.40;;;20.40;71.40;;;;;;215299;1296;25281;-53
2022/09/19 01:50:53;;;;;;;4.20;1.50;;;20.40;71.40;;;;;;215222;1300;22595;-52
2022/09/19 01:56:12;;;;;;;3.70;1.30;;;20.40;71.30;;;;;;215213;1296;24444;-52
2022/09/19 02:01:29;;;;;;;3.70;1.30;;;20.30;71.30;;;;;;214748;1299;27713;-50
2022/09/19 02:06:48;;;;;;;4.50;1.30;;;20.40;70.90;;;;;;214797;1299;22637;-55
2022/09/19 02:11:59;;;;;;;3.00;1.20;;;20.30;71.20;;;;;;215059;1296;24445;-52
2022/09/19 02:17:11;;;;;;;2.70;1.30;;;20.30;72.00;;;;;;215730;1299;23277;-51
2022/09/19 02:22:26;;;;;;;4.00;1.70;;;20.30;71.30;;;;;;214487;1297;24335;-50
2022/09/19 02:27:40;;;;;;;3.70;1.60;;;20.30;71.20;;;;;;215514;1296;23038;-51
2022/09/19 02:32:49;;;;;;;4.10;1.20;;;20.30;71.20;;;;;;216072;1299;25342;-53
2022/09/19 02:38:01;;;;;;;3.30;1.10;;;20.30;71.20;;;;;;214757;1299;22554;-49
2022/09/19 02:43:23;;;;;;;2.40;1.30;;;20.30;71.30;;;;;;214801;1296;22596;-50
2022/09/19 02:48:44;;;;;;;3.80;1.20;;;20.30;71.40;;;;;;215034;1299;22593;-52
2022/09/19 02:53:54;;;;;;;3.40;1.40;;;20.30;71.30;;;;;;214958;1297;22605;-55
2022/09/19 02:59:06;;;;;;;3.00;1.10;;;20.30;71.20;;;;;;214977;1300;22663;-48
2022/09/19 03:04:25;;;;;;;5.30;1.60;;;20.20;71.20;;;;;;215040;1299;26532;-50
2022/09/19 03:09:31;;;;;;;3.20;1.20;;;20.20;71.70;;;;;;215037;1297;24345;-55
2022/09/19 03:14:39;;;;;;;2.30;1.00;;;20.20;71.20;;;;;;215197;1300;25506;-49
2022/09/19 03:19:47;;;;;;;4.50;1.60;;;20.20;71.00;;;;;;215184;1297;22595;-51
2022/09/19 03:24:51;;;;;;;2.30;1.10;;;20.20;71.10;;;;;;215355;1297;22568;-54
2022/09/19 03:29:55;;;;;;;4.00;1.30;;;20.20;71.30;;;;;;215298;1296;25408;-52
2022/09/19 03:34:59;;;;;;;2.80;1.20;;;20.20;71.10;;;;;;215073;1300;25290;-51
2022/09/19 03:40:03;;;;;;;4.40;1.30;;;20.20;70.90;;;;;;214984;1299;22564;-57
2022/09/19 03:45:07;;;;;;;3.30;1.30;;;20.20;71.00;;;;;;215066;1299;25407;-51
2022/09/19 03:50:12;;;;;;;2.70;1.20;;;20.20;71.30;;;;;;214878;1299;25283;-53
2022/09/19 03:55:41;;;;;;;3.30;1.20;;;20.20;70.90;;;;;;214919;1300;24353;-53
2022/09/19 04:00:50;;;;;;;2.20;1.00;;;20.20;70.90;;;;;;215001;1299;23101;-51
2022/09/19 04:05:54;;;;;;;2.10;1.10;;;20.20;71.30;;;;;;214957;1298;22588;-50
2022/09/19 04:10:59;;;;;;;4.40;1.20;;;20.20;71.00;;;;;;215303;1296;22567;-50
2022/09/19 04:16:06;;;;;;;2.90;1.30;;;20.20;71.10;;;;;;214866;1296;22580;-49
2022/09/19 04:21:10;;;;;;;2.20;0.90;;;20.20;70.90;;;;;;215182;1299;25328;-49
2022/09/19 04:26:26;;;;;;;2.30;1.00;;;20.20;71.00;;;;;;215164;1300;24453;-51
2022/09/19 04:31:38;;;;;;;2.70;1.00;;;20.20;71.10;;;;;;214738;1297;22572;-51
2022/09/19 04:36:43;;;;;;;2.50;1.10;;;20.10;70.80;;;;;;214990;1299;25342;-50
2022/09/19 04:41:53;;;;;;;3.90;1.30;;;20.20;71.10;;;;;;215234;1297;25286;-51
2022/09/19 04:46:57;;;;;;;2.40;1.00;;;20.20;70.80;;;;;;214766;1299;26600;-49
2022/09/19 04:52:02;;;;;;;3.40;1.10;;;20.10;70.40;;;;;;215160;1299;24600;-50
2022/09/19 04:57:07;;;;;;;2.10;0.90;;;20.10;70.70;;;;;;214776;1297;22563;-52
2022/09/19 05:02:12;;;;;;;2.40;1.00;;;20.20;70.70;;;;;;214856;1299;22588;-50
2022/09/19 05:07:17;;;;;;;2.40;1.10;;;20.10;70.80;;;;;;215041;1299;22589;-53
2022/09/19 05:12:22;;;;;;;2.00;1.10;;;20.10;70.90;;;;;;215181;1300;22562;-49
2022/09/19 05:17:30;;;;;;;2.40;0.90;;;20.10;70.80;;;;;;215158;1299;25244;-52
2022/09/19 05:22:33;;;;;;;3.60;1.10;;;20.10;70.60;;;;;;214743;1299;23415;-51
2022/09/19 05:27:38;;;;;;;5.50;1.10;;;20.10;70.70;;;;;;215153;1296;22571;-52
2022/09/19 05:32:44;;;;;;;4.50;1.10;;;20.10;70.70;;;;;;214981;1299;25556;-50
2022/09/19 05:38:01;;;;;;;4.10;1.40;;;20.10;71.00;;;;;;214914;1297;24262;-49
2022/09/19 05:43:27;;;;;;;3.10;1.40;;;20.10;71.00;;;;;;214895;1299;24434;-53
2022/09/19 05:48:30;;;;;;;4.30;1.20;;;20.10;71.60;;;;;;215005;1299;24407;-52
2022/09/19 05:53:53;;;;;;;8.20;1.20;;;20.10;71.30;;;;;;214957;1297;22569;-51
2022/09/19 05:59:20;;;;;;;7.50;1.40;;;20.30;71.20;;;;;;215142;1297;22891;-51
2022/09/19 06:04:25;;;;;;;9.00;1.90;;;20.20;71.10;;;;;;214920;1300;26509;-50
2022/09/19 06:09:29;;;;;;;3.00;1.10;;;20.20;71.30;;;;;;215221;1300;22887;-51
2022/09/19 06:14:38;;;;;;;6.30;1.10;;;20.20;71.90;;;;;;214795;1299;22761;-49
2022/09/19 06:19:44;;;;;;;6.50;1.40;;;20.30;71.70;;;;;;215128;1299;25402;-51
2022/09/19 06:24:50;;;;;;;3.40;1.20;;;20.20;71.80;;;;;;215246;1297;22615;-51
2022/09/19 06:29:55;;;;;;;9.40;1.60;;;20.20;71.70;;;;;;215184;1300;25286;-50
2022/09/19 06:35:28;;;;;;;13.60;1.40;;;20.20;72.40;;;;;;215116;1297;25243;-52
2022/09/19 06:40:32;;;;;;;9.20;1.60;;;20.30;72.50;;;;;;215141;1296;22699;-52
2022/09/19 06:45:47;;;;;;;11.90;1.80;;;20.40;72.10;;;;;;215180;1299;22573;-56
2022/09/19 06:51:14;;;;;;;9.80;1.40;;;20.40;72.00;;;;;;214928;1300;25325;-51
2022/09/19 06:56:18;;;;;;;9.40;1.70;;;20.20;71.40;;;;;;214878;1297;25002;-55
2022/09/19 07:01:23;;;;;;;10.80;1.40;;;20.20;71.70;;;;;;214935;1297;26651;-53
2022/09/19 07:06:27;;;;;;;5.80;1.40;;;20.20;72.10;;;;;;215026;1296;22558;-55
2022/09/19 07:11:39;;;;;;;7.10;1.20;;;20.20;71.40;;;;;;215175;1297;22640;-53
2022/09/19 07:16:43;;;;;;;8.20;1.80;;;20.10;71.40;;;;;;215337;1297;26536;-54
2022/09/19 07:21:55;;;;;;;5.30;1.40;;;20.10;72.00;;;;;;215286;1296;25240;-54
2022/09/19 07:27:30;;;;;;;7.60;1.40;;;20.20;71.10;;;;;;214675;1299;22623;-55
2022/09/19 07:32:33;;;;;;;3.80;1.50;;;20.10;70.90;;;;;;215089;1297;25288;-54
2022/09/19 07:37:37;;;;;;;10.80;1.60;;;20.20;70.70;;;;;;214947;1299;24000;-53
2022/09/19 07:43:13;;;;;;;6.00;1.30;;;20.20;71.00;;;;;;215008;1300;22636;-54
2022/09/19 07:48:46;;;;;;;6.30;1.20;;;20.20;70.70;;;;;;214784;1299;22875;-56
2022/09/19 07:54:18;;;;;;;4.40;1.20;;;20.20;70.80;;;;;;214864;1299;24227;-53
2022/09/19 07:59:23;;;;;;;3.70;1.10;;;20.20;71.10;;;;;;215035;1299;24310;-55
2022/09/19 08:04:31;;;;;;;2.20;0.90;;;20.20;70.70;;;;;;215171;1297;25295;-54
2022/09/19 08:09:35;;;;;;;4.20;1.10;;;20.20;70.50;;;;;;215048;1299;25294;-53
2022/09/19 08:14:44;;;;;;;10.20;1.50;;;20.20;70.60;;;;;;215108;1300;25295;-52
2022/09/19 08:19:48;;;;;;;4.40;1.20;;;20.20;70.50;;;;;;215127;1297;23034;-54
2022/09/19 08:24:51;;;;;;;3.80;1.50;;;20.20;70.30;;;;;;214915;1296;25310;-54
2022/09/19 08:29:56;;;;;;;4.80;1.70;;;20.20;70.30;;;;;;214851;1300;24279;-52
2022/09/19 08:34:59;;;;;;;3.40;1.40;;;20.20;70.70;;;;;;215098;1297;22566;-54
2022/09/19 08:40:16;;;;;;;2.20;1.20;;;20.20;70.60;;;;;;214824;1299;22594;-58
2022/09/19 08:45:55;;;;;;;3.70;1.30;;;20.20;70.50;;;;;;214905;1296;24368;-54
2022/09/19 08:51:24;;;;;;;7.80;1.60;;;20.20;70.30;;;;;;214526;1299;22656;-56
2022/09/19 08:56:30;;;;;;;4.00;1.30;;;20.20;70.30;;;;;;215038;1297;22691;-55
2022/09/19 09:01:36;;;;;;;5.80;1.60;;;20.30;71.10;;;;;;214965;1297;24940;-52
2022/09/19 09:07:14;;;;;;;4.00;1.20;;;20.40;71.20;;;;;;214962;1299;24408;-52
2022/09/19 09:12:23;;;;;;;3.50;1.40;;;20.40;71.10;;;;;;215034;1297;24329;-52
2022/09/19 09:17:51;;;;;;;5.30;1.50;;;20.50;71.00;;;;;;215096;1296;24412;-52
2022/09/19 09:23:15;;;;;;;6.30;1.60;;;20.50;71.10;;;;;;214936;1297;24301;-54
2022/09/19 09:29:12;;;;;;;2.90;1.20;;;20.40;71.60;;;;;;214902;1299;24231;-56
2022/09/19 09:34:28;;;;;;;4.90;1.40;;;20.40;71.40;;;;;;215126;1300;25419;-52
2022/09/19 09:45:48;;;;;;;3.90;1.00;;;20.40;71.50;;;;;;214702;1299;25356;-53
2022/09/19 09:51:00;;;;;;;5.60;1.50;;;20.50;71.40;;;;;;214907;1298;24341;-53
2022/09/19 09:56:21;;;;;;;2.90;1.20;;;20.40;71.80;;;;;;214771;1296;22599;-52
2022/09/19 10:07:58;;;;;;;3.90;1.40;;;20.30;72.00;;;;;;214868;1299;26196;-54
2022/09/19 10:13:16;;;;;;;5.50;1.30;;;20.30;71.90;;;;;;214860;1297;24198;-53
2022/09/19 10:18:27;;;;;;;3.60;1.20;;;20.30;71.80;;;;;;215125;1299;22570;-52
2022/09/19 10:23:44;;;;;;;2.80;1.10;;;20.30;72.10;;;;;;215105;1299;22748;-51
2022/09/19 10:28:59;;;;;;;6.30;1.30;;;20.30;72.00;;;;;;214919;1297;25485;-50
2022/09/19 10:34:32;;;;;;;4.00;1.50;;;20.40;72.70;;;;;;214973;1296;25418;-50
2022/09/19 10:39:48;;;;;;;;;;;20.30;72.60;;;;;;214832;1299;26518;-53
2022/09/19 10:45:00;;;;;;;2.70;1.20;;;20.20;72.80;;;;;;215045;1297;26593;-54
2022/09/19 10:50:05;;;;;;;3.70;1.50;;;20.20;73.30;;;;;;215142;1297;25285;-50
2022/09/19 10:55:23;;;;;;;6.00;1.50;;;20.20;73.40;;;;;;215145;1299;24350;-52
2022/09/19 11:01:04;;;;;;;6.70;1.40;;;20.20;73.40;;;;;;215006;1296;24298;-53
2022/09/19 11:06:19;;;;;;;5.20;1.80;;;20.20;73.50;;;;;;215110;1296;24350;-53
2022/09/19 11:11:36;;;;;;;4.30;1.20;;;20.20;72.90;;;;;;215304;1297;25409;-53
2022/09/19 11:17:03;;;;;;;3.20;1.30;;;20.20;73.50;;;;;;215153;1297;25355;-51
2022/09/19 11:22:35;;;;;;;6.10;1.30;;;20.20;73.40;;;;;;215290;1299;22567;-54
2022/09/19 11:27:42;;;;;;;3.10;1.40;;;20.20;73.40;;;;;;215167;1299;24304;-52
2022/09/19 11:32:57;;;;;;;4.00;1.10;;;20.10;72.80;;;;;;215245;1296;22565;-52
2022/09/19 11:38:46;;;;;;;2.70;1.30;;;20.20;73.70;;;;;;214883;1296;23021;-52
2022/09/19 11:44:42;;;;;;;4.80;1.50;;;20.20;74.00;;;;;;215079;1299;24582;-54
2022/09/19 11:50:15;;;;;;;3.00;1.30;;;20.20;73.20;;;;;;214811;1297;26421;-53
2022/09/19 11:55:37;;;;;;;2.90;1.20;;;20.20;74.10;;;;;;215007;1297;25277;-52
2022/09/19 12:00:50;;;;;;;2.30;1.20;;;20.20;73.90;;;;;;215254;1296;23888;-50
2022/09/19 12:06:12;;;;;;;2.30;1.40;;;20.20;74.00;;;;;;215015;1296;25386;-52
2022/09/19 12:11:39;;;;;;;2.70;1.20;;;20.20;74.20;;;;;;215151;1297;22596;-52
2022/09/19 12:17:03;;;;;;;2.30;1.30;;;20.20;73.70;;;;;;215108;1296;25280;-53
2022/09/19 12:22:16;;;;;;;3.80;1.30;;;20.10;73.50;;;;;;214875;1299;23956;-54
2022/09/19 12:27:19;;;;;;;4.10;1.40;;;20.10;74.20;;;;;;214979;1299;25473;-52
2022/09/19 12:32:51;;;;;;;2.40;1.00;;;20.20;74.10;;;;;;214995;1297;24335;-56
2022/09/19 12:38:23;;;;;;;2.50;1.30;;;20.20;74.00;;;;;;214842;1297;22773;-55
2022/09/19 12:44:15;;;;;;;2.00;1.10;;;20.20;74.00;;;;;;215012;1297;24098;-51
2022/09/19 12:49:54;;;;;;;4.20;1.40;;;20.20;74.20;;;;;;214030;1300;22873;-50
2022/09/19 12:55:07;;;;;;;1.70;1.00;;;20.20;74.40;;;;;;214810;1297;24011;-52
2022/09/19 13:00:13;;;;;;;2.10;1.20;;;20.20;74.60;;;;;;215160;1297;25367;-51
2022/09/19 13:05:40;;;;;;;4.00;1.40;;;20.20;74.40;;;;;;214995;1297;25448;-52
2022/09/19 13:11:15;;;;;;;2.90;1.60;;;20.20;74.80;;;;;;214970;1297;22873;-52
2022/09/19 13:16:28;;;;;;;3.70;1.70;;;20.10;74.20;;;;;;215060;1297;22772;-48
2022/09/19 13:27:03;;;;;;;2.30;1.10;;;20.20;74.20;;;;;;214957;1297;23107;-51
2022/09/19 13:32:27;;;;;;;2.30;1.10;;;20.20;74.20;;;;;;215107;1296;24751;-51
2022/09/19 13:37:33;;;;;;;2.40;1.10;;;20.20;74.00;;;;;;214952;1296;22609;-54
2022/09/19 13:42:43;;;;;;;2.20;1.10;;;20.20;73.90;;;;;;215084;1297;22632;-50
2022/09/19 13:47:51;;;;;;;3.10;1.50;;;20.20;74.10;;;;;;215060;1297;24291;-50
2022/09/19 13:53:12;;;;;;;7.20;1.60;;;20.20;74.40;;;;;;215021;1296;22637;-50
2022/09/19 13:58:34;;;;;;;3.20;1.00;;;20.20;75.70;;;;;;215119;1297;24273;-54
2022/09/19 14:03:50;;;;;;;2.00;1.00;;;20.20;75.00;;;;;;215125;1296;24313;-53
2022/09/19 14:09:23;;;;;;;2.00;1.00;;;20.20;75.50;;;;;;214985;1296;25689;-51
2022/09/19 14:14:53;;;;;;;1.80;0.90;;;20.20;76.40;;;;;;214864;1299;25287;-53
2022/09/19 14:20:04;;;;;;;2.30;1.00;;;20.20;75.50;;;;;;214678;1299;24335;-52
2022/09/19 14:25:26;;;;;;;7.50;2.20;;;20.20;76.00;;;;;;214877;1296;22745;-53
2022/09/19 14:31:10;;;;;;;2.90;1.40;;;20.20;75.60;;;;;;214658;1297;24153;-52
2022/09/19 14:37:06;;;;;;;8.50;1.40;;;20.20;75.10;;;;;;214958;1297;23245;-52
2022/09/19 14:42:27;;;;;;;4.20;1.20;;;20.20;74.00;;;;;;214666;1299;26707;-49
2022/09/19 14:47:46;;;;;;;;;;;20.10;73.70;;;;;;214784;1297;22672;-52
2022/09/19 14:53:05;;;;;;;2.50;1.30;;;20.00;72.50;;;;;;214840;1299;22633;-52
2022/09/19 14:58:31;;;;;;;2.20;1.20;;;20.00;71.00;;;;;;214465;1299;22582;-50
2022/09/19 15:03:58;;;;;;;3.60;1.40;;;19.90;70.60;;;;;;214883;1296;24250;-53
2022/09/19 15:09:35;;;;;;;6.10;1.50;;;19.90;70.40;;;;;;214593;1297;25276;-51
2022/09/19 15:14:48;;;;;;;5.10;1.30;;;19.90;71.20;;;;;;214971;1297;24275;-52
2022/09/19 15:20:29;;;;;;;10.30;2.40;;;20.00;70.20;;;;;;214813;1297;24299;-57
2022/09/19 15:25:40;;;;;;;14.70;3.70;;;20.20;70.90;;;;;;214689;1298;26509;-53
2022/09/19 15:31:01;;;;;;;9.00;2.60;;;20.20;72.20;;;;;;214589;1299;22570;-53
2022/09/19 15:36:17;;;;;;;8.50;2.90;;;20.30;72.70;;;;;;214881;1297;22608;-54
2022/09/19 15:41:33;;;;;;;12.10;2.90;;;20.30;73.20;;;;;;214698;1299;24224;-54
2022/09/19 15:47:05;;;;;;;6.10;2.50;;;20.40;73.40;;;;;;214848;1296;22652;-54
2022/09/19 15:52:19;;;;;;;6.30;2.60;;;20.40;73.40;;;;;;214676;1297;22615;-53
2022/09/19 15:57:49;;;;;;;12.70;2.40;;;20.40;72.90;;;;;;215080;1297;22732;-53
2022/09/19 16:03:08;;;;;;;6.70;2.10;;;20.40;72.60;;;;;;215005;1297;25155;-52
2022/09/19 16:13:51;;;;;;;8.40;1.80;;;20.30;70.60;;;;;;214852;1297;24296;-53
2022/09/19 16:19:02;;;;;;;3.50;1.50;;;20.30;69.20;;;;;;214597;1297;25431;-52
2022/09/19 16:24:16;;;;;;;5.50;1.30;;;20.20;67.20;;;;;;214804;1298;22851;-54
2022/09/19 16:29:21;;;;;;;3.90;1.70;;;19.90;66.40;;;;;;214988;1299;22589;-54
2022/09/19 16:34:38;;;;;;;10.50;1.70;;;20.10;66.50;;;;;;214905;1299;22596;-54
2022/09/19 16:39:50;;;;;;;12.90;2.10;;;20.10;67.20;;;;;;214743;1297;25461;-58
2022/09/19 16:45:18;;;;;;;5.40;2.30;;;20.10;67.90;;;;;;214553;1297;24258;-55
2022/09/19 16:50:26;;;;;;;10.00;2.00;;;20.20;68.50;;;;;;215080;1296;22569;-53
2022/09/19 16:55:45;;;;;;;10.20;2.30;;;20.30;68.80;;;;;;214885;1296;24249;-54
2022/09/19 17:01:00;;;;;;;8.00;1.90;;;20.30;69.00;;;;;;214804;1296;25458;-54
2022/09/19 17:06:22;;;;;;;8.60;2.10;;;20.40;70.20;;;;;;214640;1297;24385;-53
2022/09/19 17:11:29;;;;;;;5.90;1.90;;;20.60;69.90;;;;;;214614;1299;24240;-54
2022/09/19 17:16:41;;;;;;;7.30;2.00;;;20.80;69.50;;;;;;214921;1296;22749;-55
2022/09/19 17:21:57;;;;;;;6.90;1.90;;;21.00;69.00;;;;;;214435;1297;22638;-52
2022/09/19 17:27:32;;;;;;;14.70;2.00;;;21.20;68.50;;;;;;214795;1296;24291;-50
2022/09/19 17:32:49;;;;;;;6.20;2.20;;;21.30;68.30;;;;;;214628;1297;24305;-52
2022/09/19 17:38:06;;;;;;;8.30;2.40;;;21.50;68.10;;;;;;214738;1296;22576;-56
2022/09/19 17:43:31;;;;;;;11.30;2.00;;;21.60;68.10;;;;;;214830;1297;22656;-52
2022/09/19 17:49:17;;;;;;;14.70;2.40;;;21.70;68.40;;;;;;214933;1296;22705;-51
2022/09/19 17:54:33;;;;;;;8.50;2.20;;;21.80;68.70;;;;;;214592;1297;24629;-52
2022/09/19 17:59:50;;;;;;;9.10;2.10;;;21.80;68.40;;;;;;214789;1297;24901;-52
2022/09/19 18:05:27;;;;;;;13.80;2.50;;;21.80;68.40;;;;;;214624;1299;22597;-52
2022/09/19 18:10:40;;;;;;;11.50;2.40;;;21.70;68.70;;;;;;214607;1299;24366;-50
2022/09/19 18:16:00;;;;;;;6.70;2.20;;;21.70;68.90;;;;;;214833;1296;25352;-51
2022/09/19 18:21:15;;;;;;;11.50;3.10;;;21.70;69.70;;;;;;214578;1297;22671;-50
2022/09/19 18:26:40;;;;;;;7.80;2.10;;;21.60;69.90;;;;;;214867;1297;24262;-48
2022/09/19 18:32:13;;;;;;;8.00;3.00;;;21.60;71.00;;;;;;214972;1296;22669;-49
2022/09/19 18:38:03;;;;;;;;;;;;;;;;;;;;;
2022/09/19 18:43:26;;;;;;;8.00;1.70;;;21.60;72.90;;;;;;215157;1299;24258;-54
2022/09/19 18:48:35;;;;;;;6.80;1.60;;;21.50;73.60;;;;;;215014;1296;24335;-54
2022/09/19 18:53:48;;;;;;;11.60;2.10;;;21.40;73.70;;;;;;214998;1296;24341;-54
2022/09/19 18:59:02;;;;;;;8.60;2.10;;;21.50;73.90;;;;;;214836;1299;22713;-53
2022/09/19 19:04:37;;;;;;;9.80;2.20;;;21.50;74.00;;;;;;214710;1299;22602;-54
2022/09/19 19:09:58;;;;;;;4.80;1.90;;;21.40;74.30;;;;;;214088;1302;24245;-54
2022/09/19 19:15:16;;;;;;;11.90;2.00;;;21.40;74.70;;;;;;214121;1302;24497;-50
2022/09/19 19:20:38;;;;;;;7.50;2.10;;;21.40;75.40;;;;;;213868;1302;25610;-53
2022/09/19 19:26:41;;;;;;;10.60;2.30;;;21.40;76.10;;;;;;214199;1301;26557;-50
2022/09/19 19:31:53;;;;;;;11.20;1.80;;;21.30;76.80;;;;;;214321;1302;22576;-55
2022/09/19 19:37:08;;;;;;;19.10;2.80;;;21.30;76.80;;;;;;214194;1301;24543;-54
2022/09/19 19:42:21;;;;;;;22.50;3.20;;;21.30;76.90;;;;;;215200;1296;24406;-53
2022/09/19 19:47:27;;;;;;;15.90;2.90;;;21.30;76.50;;;;;;214932;1297;22623;-53
2022/09/19 19:52:46;;;;;;;25.80;4.00;;;21.30;76.40;;;;;;214788;1299;22565;-55
2022/09/19 19:57:50;;;;;;;14.00;3.10;;;21.20;76.20;;;;;;215014;1296;24233;-53
2022/09/19 20:03:00;;;;;;;20.90;2.70;;;21.20;76.00;;;;;;214911;1297;22589;-53
2022/09/19 20:08:06;;;;;;;18.40;2.70;;;21.10;76.10;;;;;;215098;1296;22691;-55
2022/09/19 20:13:14;;;;;;;18.40;3.30;;;21.00;76.20;;;;;;214968;1296;22700;-55
2022/09/19 20:18:36;;;;;;;18.40;2.80;;;21.00;76.10;;;;;;215030;1296;24255;-53
2022/09/19 20:23:52;;;;;;;16.00;2.90;;;21.00;76.10;;;;;;215533;1297;22812;-53
2022/09/19 20:29:00;;;;;;;19.80;2.40;;;20.90;76.10;;;;;;215147;1296;22605;-56
2022/09/19 20:34:08;;;;;;;11.30;3.00;;;21.00;77.20;;;;;;215258;1296;24436;-53
2022/09/19 20:39:21;;;;;;;18.10;2.70;;;21.00;76.90;;;;;;215123;1296;24343;-54
2022/09/19 20:44:26;;;;;;;19.30;3.10;;;20.90;77.00;;;;;;214779;1296;23110;-54
2022/09/19 20:49:30;;;;;;;11.80;2.50;;;21.00;78.20;;;;;;214741;1299;22601;-52
2022/09/19 20:54:33;;;;;;;15.50;2.80;;;20.90;77.40;;;;;;215082;1299;22594;-53
2022/09/19 20:59:38;;;;;;;10.00;2.70;;;21.00;78.00;;;;;;215128;1296;25314;-55
2022/09/19 21:04:41;;;;;;;13.70;2.70;;;21.00;77.30;;;;;;214834;1296;22600;-58
2022/09/19 21:10:03;;;;;;;10.30;2.70;;;21.00;77.30;;;;;;214967;1296;23948;-53
2022/09/19 21:15:12;;;;;;;9.70;2.10;;;20.90;77.40;;;;;;214984;1299;25277;-55
2022/09/19 21:20:25;;;;;;;11.40;1.90;;;20.90;77.10;;;;;;214883;1299;22604;-56
2022/09/19 21:25:29;;;;;;;10.50;2.40;;;20.90;77.00;;;;;;215005;1299;22634;-55
2022/09/19 21:30:38;;;;;;;7.90;2.40;;;20.90;76.90;;;;;;215133;1296;22589;-54
2022/09/19 21:35:46;;;;;;;7.60;2.30;;;20.90;76.70;;;;;;215133;1296;22602;-52
2022/09/19 21:41:12;;;;;;;6.40;2.30;;;20.80;76.70;;;;;;215042;1299;23201;-55
2022/09/19 21:46:19;;;;;;;8.00;1.70;;;20.80;76.70;;;;;;215052;1299;24335;-54
2022/09/19 21:51:32;;;;;;;8.20;1.80;;;20.80;76.70;;;;;;215039;1296;25644;-56
2022/09/19 21:56:36;;;;;;;6.50;2.00;;;20.80;76.50;;;;;;215044;1296;25290;-54
2022/09/19 22:01:40;;;;;;;8.70;2.00;;;20.80;76.60;;;;;;215073;1296;23962;-54
2022/09/19 22:06:44;;;;;;;7.60;2.30;;;20.70;76.90;;;;;;214874;1296;24236;-54
2022/09/19 22:11:48;;;;;;;9.50;2.20;;;20.70;76.50;;;;;;214785;1299;24351;-53
2022/09/19 22:16:51;;;;;;;5.60;1.90;;;20.70;76.50;;;;;;215027;1296;23207;-53
2022/09/19 22:21:55;;;;;;;4.50;2.20;;;20.70;76.40;;;;;;215122;1296;25283;-56
2022/09/19 22:26:59;;;;;;;9.40;1.60;;;20.70;76.50;;;;;;215000;1296;22572;-55
2022/09/19 22:32:05;;;;;;;5.70;2.30;;;20.70;76.30;;;;;;214763;1297;23944;-55
2022/09/19 22:37:09;;;;;;;7.20;2.10;;;20.70;76.60;;;;;;214912;1297;26627;-54
2022/09/19 22:42:12;;;;;;;7.40;1.50;;;20.70;75.80;;;;;;214927;1296;22582;-55
2022/09/19 22:47:16;;;;;;;8.00;2.20;;;20.70;76.10;;;;;;214939;1299;24258;-56
2022/09/19 22:52:20;;;;;;;4.70;1.90;;;20.70;76.20;;;;;;214963;1299;25438;-53
2022/09/19 22:57:27;;;;;;;7.20;2.10;;;20.60;76.50;;;;;;214967;1299;26520;-59
2022/09/19 23:02:31;;;;;;;3.80;1.80;;;20.70;75.80;;;;;;215196;1297;24795;-52
2022/09/19 23:07:39;;;;;;;3.70;2.00;;;20.70;76.10;;;;;;215216;1296;24258;-51
2022/09/19 23:13:45;;;;;;;7.20;2.10;;;20.60;76.20;;;;;;214943;1300;22567;-55
2022/09/19 23:18:24;;;;;;;5.30;1.70;;;20.60;76.30;;;;;;214647;1297;24294;-53
2022/09/19 23:23:28;;;;;;;5.80;1.90;;;20.60;76.30;;;;;;214873;1299;23290;-52
2022/09/19 23:28:31;;;;;;;7.10;1.70;;;20.50;76.30;;;;;;214890;1299;25290;-52
2022/09/19 23:33:36;;;;;;;5.90;2.00;;;20.60;76.10;;;;;;215069;1300;24729;-54
2022/09/19 23:38:40;;;;;;;3.80;1.70;;;20.60;76.20;;;;;;215264;1300;25411;-55
2022/09/19 23:43:44;;;;;;;3.50;1.50;;;20.60;76.10;;;;;;215246;1299;24263;-54
2022/09/19 23:48:54;;;;;;;4.30;1.70;;;20.60;76.20;;;;;;214710;1299;22589;-55
2022/09/19 23:53:59;;;;;;;3.40;1.40;;;20.60;76.00;;;;;;215024;1299;25368;-53
2022/09/19 23:59:02;;;;;;;3.60;1.80;;;20.50;76.40;;;;;;215091;1298;22580;-52
